createdAt,value
2022-09-11T00:01:32.421Z,100.00
2022-09-11T00:03:59.914Z,100.00
2022-09-11T00:06:30.161Z,100.00
2022-09-11T00:09:01.557Z,100.00
2022-09-11T00:11:36.196Z,100.00
2022-09-11T00:14:03.187Z,100.00
2022-09-11T00:16:37.132Z,100.00
2022-09-11T00:19:09.316Z,100.00
2022-09-11T00:21:36.517Z,100.00
2022-09-11T00:24:04.352Z,100.00
2022-09-11T00:26:31.676Z,100.00
2022-09-11T00:28:58.470Z,100.00
2022-09-11T00:31:28.273Z,100.00
2022-09-11T00:33:56.181Z,100.00
2022-09-11T00:36:26.932Z,100.00
2022-09-11T00:38:54.688Z,100.00
2022-09-11T00:41:23.029Z,100.00
2022-09-11T00:44:07.820Z,100.00
2022-09-11T00:46:44.775Z,100.00
2022-09-11T00:49:39.710Z,100.00
2022-09-11T00:52:23.059Z,100.00
2022-09-11T00:54:52.279Z,100.00
2022-09-11T00:57:24.101Z,100.00
2022-09-11T00:59:54.592Z,100.00
2022-09-11T01:02:27.295Z,100.00
2022-09-11T01:04:56.783Z,100.00
2022-09-11T01:07:25.892Z,100.00
2022-09-11T01:09:54.033Z,100.00
2022-09-11T01:13:05.034Z,100.00
2022-09-11T01:15:50.218Z,100.00
2022-09-11T01:18:39.873Z,100.00
2022-09-11T01:21:39.446Z,100.00
2022-09-11T01:24:16.962Z,100.00
2022-09-11T01:26:57.787Z,100.00
2022-09-11T01:29:42.723Z,100.00
2022-09-11T01:32:24.158Z,100.00
2022-09-11T01:35:04.336Z,100.00
2022-09-11T01:37:42.115Z,100.00
2022-09-11T01:40:20.760Z,100.00
2022-09-11T01:42:52.449Z,100.00
2022-09-11T01:45:20.759Z,100.00
2022-09-11T01:47:49.623Z,100.00
2022-09-11T01:50:19.624Z,100.00
2022-09-11T01:52:58.146Z,100.00
2022-09-11T01:55:41.392Z,100.00
2022-09-11T01:58:13.397Z,100.00
2022-09-11T02:00:42.395Z,100.00
2022-09-11T02:03:17.649Z,100.00
2022-09-11T02:06:15.914Z,100.00
2022-09-11T02:08:51.444Z,100.00
2022-09-11T02:11:19.433Z,100.00
2022-09-11T02:13:49.903Z,100.00
2022-09-11T02:16:42.480Z,100.00
2022-09-11T02:19:16.956Z,100.00
2022-09-11T02:21:45.374Z,100.00
2022-09-11T02:24:12.264Z,100.00
2022-09-11T02:27:02.069Z,100.00
2022-09-11T02:29:28.910Z,100.00
2022-09-11T02:31:56.288Z,100.00
2022-09-11T02:34:29.777Z,100.00
2022-09-11T02:37:45.481Z,100.00
2022-09-11T02:40:41.626Z,100.00
2022-09-11T02:43:38.853Z,100.00
2022-09-11T02:46:49.206Z,100.00
2022-09-11T02:49:54.868Z,100.00
2022-09-11T02:53:10.876Z,100.00
2022-09-11T02:56:32.049Z,100.00
2022-09-11T02:59:05.837Z,100.00
2022-09-11T03:01:51.950Z,100.00
2022-09-11T03:04:20.707Z,100.00
2022-09-11T03:06:48.540Z,100.00
2022-09-11T03:09:16.586Z,100.00
2022-09-11T03:11:45.367Z,100.00
2022-09-11T03:14:12.581Z,100.00
2022-09-11T03:16:39.912Z,100.00
2022-09-11T03:19:07.255Z,100.00
2022-09-11T03:21:35.107Z,100.00
2022-09-11T03:24:03.611Z,100.00
2022-09-11T03:26:31.543Z,100.00
2022-09-11T03:28:58.445Z,100.00
2022-09-11T03:31:25.527Z,100.00
2022-09-11T03:33:52.377Z,100.00
2022-09-11T03:36:20.228Z,100.00
2022-09-11T03:38:50.277Z,100.00
2022-09-11T03:41:17.174Z,100.00
2022-09-11T03:43:44.062Z,100.00
2022-09-11T03:46:10.995Z,100.00
2022-09-11T03:48:37.946Z,100.00
2022-09-11T03:51:05.843Z,100.00
2022-09-11T03:53:33.385Z,100.00
2022-09-11T03:56:01.055Z,100.00
2022-09-11T03:58:27.904Z,100.00
2022-09-11T04:00:56.162Z,100.00
2022-09-11T04:03:22.973Z,100.00
2022-09-11T04:06:00.158Z,100.00
2022-09-11T04:08:27.531Z,100.00
2022-09-11T04:10:59.070Z,100.00
2022-09-11T04:13:34.710Z,100.00
2022-09-11T04:16:08.454Z,100.00
2022-09-11T04:18:38.386Z,100.00
2022-09-11T04:21:11.745Z,100.00
2022-09-11T04:23:39.842Z,100.00
2022-09-11T04:26:19.299Z,100.00
2022-09-11T04:28:46.556Z,100.00
2022-09-11T04:31:15.035Z,100.00
2022-09-11T04:33:42.583Z,100.00
2022-09-11T04:36:13.110Z,100.00
2022-09-11T04:38:41.444Z,100.00
2022-09-11T04:41:09.809Z,100.00
2022-09-11T04:43:38.776Z,100.00
2022-09-11T04:46:12.831Z,100.00
2022-09-11T04:48:52.213Z,100.00
2022-09-11T04:51:30.071Z,100.00
2022-09-11T04:53:59.123Z,100.00
2022-09-11T04:56:29.448Z,100.00
2022-09-11T04:59:05.474Z,100.00
2022-09-11T05:01:36.507Z,100.00
2022-09-11T05:04:03.349Z,100.00
2022-09-11T05:06:30.917Z,100.00
2022-09-11T05:09:03.686Z,100.00
2022-09-11T05:11:30.733Z,100.00
2022-09-11T05:14:00.336Z,100.00
2022-09-11T05:16:29.146Z,100.00
2022-09-11T05:18:57.202Z,100.00
2022-09-11T05:21:26.637Z,100.00
2022-09-11T05:23:59.457Z,100.00
2022-09-11T05:26:30.341Z,100.00
2022-09-11T05:29:04.329Z,100.00
2022-09-11T05:31:32.242Z,100.00
2022-09-11T05:34:00.562Z,100.00
2022-09-11T05:36:28.445Z,100.00
2022-09-11T05:38:55.230Z,100.00
2022-09-11T05:41:22.178Z,100.00
2022-09-11T05:43:49.150Z,100.00
2022-09-11T05:46:17.956Z,100.00
2022-09-11T05:48:45.258Z,100.00
2022-09-11T05:51:19.190Z,100.00
2022-09-11T05:53:49.006Z,100.00
2022-09-11T05:56:19.096Z,100.00
2022-09-11T05:58:47.601Z,100.00
2022-09-11T06:01:18.202Z,100.00
2022-09-11T06:03:47.346Z,100.00
2022-09-11T06:06:14.321Z,100.00
2022-09-11T06:08:44.066Z,100.00
2022-09-11T06:11:13.933Z,100.00
2022-09-11T06:13:46.437Z,100.00
2022-09-11T06:16:19.574Z,100.00
2022-09-11T06:18:50.272Z,100.00
2022-09-11T06:21:20.515Z,100.00
2022-09-11T06:23:49.868Z,100.00
2022-09-11T06:26:21.389Z,100.00
2022-09-11T06:28:48.962Z,100.00
2022-09-11T06:31:21.497Z,100.00
2022-09-11T06:33:49.194Z,100.00
2022-09-11T06:36:18.804Z,100.00
2022-09-11T06:38:46.182Z,100.00
2022-09-11T06:41:17.076Z,100.00
2022-09-11T06:43:44.739Z,100.00
2022-09-11T06:46:25.632Z,100.00
2022-09-11T06:48:53.756Z,100.00
2022-09-11T06:51:22.942Z,100.00
2022-09-11T06:53:53.395Z,100.00
2022-09-11T06:56:22.417Z,100.00
2022-09-11T06:58:50.223Z,100.00
2022-09-11T07:01:19.492Z,100.00
2022-09-11T07:03:50.093Z,100.00
2022-09-11T07:06:23.792Z,100.00
2022-09-11T07:08:53.374Z,100.00
2022-09-11T07:11:21.410Z,100.00
2022-09-11T07:13:48.466Z,100.00
2022-09-11T07:16:16.891Z,100.00
2022-09-11T07:18:46.286Z,100.00
2022-09-11T07:21:23.792Z,100.00
2022-09-11T07:23:54.478Z,100.00
2022-09-11T07:26:23.585Z,100.00
2022-09-11T07:28:51.581Z,100.00
2022-09-11T07:31:22.212Z,100.00
2022-09-11T07:33:50.684Z,100.00
2022-09-11T07:36:26.221Z,100.00
2022-09-11T07:38:54.752Z,100.00
2022-09-11T07:41:23.926Z,100.00
2022-09-11T07:44:03.307Z,100.00
2022-09-11T07:46:31.114Z,100.00
2022-09-11T07:48:58.599Z,100.00
2022-09-11T07:51:26.826Z,100.00
2022-09-11T07:53:56.711Z,100.00
2022-09-11T07:56:26.229Z,100.00
2022-09-11T07:58:55.021Z,100.00
2022-09-11T08:01:26.726Z,100.00
2022-09-11T08:04:01.845Z,100.00
2022-09-11T08:06:32.806Z,100.00
2022-09-11T08:09:03.903Z,100.00
2022-09-11T08:11:34.120Z,100.00
2022-09-11T08:14:01.239Z,100.00
2022-09-11T08:16:28.618Z,100.00
2022-09-11T08:18:55.763Z,100.00
2022-09-11T08:21:24.081Z,100.00
2022-09-11T08:23:51.013Z,100.00
2022-09-11T08:26:30.296Z,100.00
2022-09-11T08:28:59.802Z,100.00
2022-09-11T08:31:28.067Z,100.00
2022-09-11T08:33:55.971Z,100.00
2022-09-11T08:36:23.817Z,100.00
2022-09-11T08:38:52.454Z,100.00
2022-09-11T08:41:29.997Z,100.00
2022-09-11T08:44:19.737Z,100.00
2022-09-11T08:47:12.812Z,100.00
2022-09-11T08:49:43.404Z,100.00
2022-09-11T08:52:14.436Z,100.00
2022-09-11T08:54:43.681Z,100.00
2022-09-11T08:57:44.388Z,100.00
2022-09-11T09:00:21.197Z,100.00
2022-09-11T09:02:53.710Z,100.00
2022-09-11T09:05:25.273Z,100.00
2022-09-11T09:08:14.479Z,100.00
2022-09-11T09:10:53.547Z,100.00
2022-09-11T09:13:50.816Z,100.00
2022-09-11T09:16:42.326Z,100.00
2022-09-11T09:19:17.524Z,100.00
2022-09-11T09:21:55.247Z,100.00
2022-09-11T09:24:23.371Z,100.00
2022-09-11T09:26:56.218Z,100.00
2022-09-11T09:29:29.120Z,100.00
2022-09-11T09:32:06.507Z,100.00
2022-09-11T09:34:37.470Z,100.00
2022-09-11T09:37:21.929Z,100.00
2022-09-11T09:39:50.112Z,100.00
2022-09-11T09:42:34.865Z,100.00
2022-09-11T09:45:44.460Z,100.00
2022-09-11T09:48:12.241Z,100.00
2022-09-11T09:50:41.958Z,100.00
2022-09-11T09:53:27.518Z,100.00
2022-09-11T09:55:56.575Z,100.00
2022-09-11T09:58:32.737Z,100.00
2022-09-11T10:00:59.685Z,100.00
2022-09-11T10:03:26.826Z,100.00
2022-09-11T10:05:55.944Z,100.00
2022-09-11T10:08:36.655Z,100.00
2022-09-11T10:11:06.620Z,100.00
2022-09-11T10:13:43.936Z,100.00
2022-09-11T10:16:26.190Z,100.00
2022-09-11T10:18:55.552Z,100.00
2022-09-11T10:21:29.711Z,100.00
2022-09-11T10:23:58.903Z,100.00
2022-09-11T10:26:43.565Z,100.00
2022-09-11T10:29:19.915Z,100.00
2022-09-11T10:32:02.481Z,100.00
2022-09-11T10:34:40.373Z,100.00
2022-09-11T10:37:23.788Z,100.00
2022-09-11T10:39:51.276Z,100.00
2022-09-11T10:42:23.457Z,100.00
2022-09-11T10:44:52.675Z,100.00
2022-09-11T10:47:30.631Z,100.00
2022-09-11T10:50:16.210Z,100.00
2022-09-11T10:53:04.274Z,100.00
2022-09-11T10:55:58.241Z,95.15
2022-09-11T10:58:33.454Z,92.30
2022-09-11T11:01:01.054Z,91.28
2022-09-11T11:03:29.337Z,96.99
2022-09-11T11:06:40.883Z,91.59
2022-09-11T11:09:07.846Z,94.27
2022-09-11T11:12:01.823Z,94.86
2022-09-11T11:15:11.491Z,97.92
2022-09-11T11:18:13.984Z,97.26
2022-09-11T11:21:03.315Z,100.00
2022-09-11T11:23:36.552Z,100.00
2022-09-11T11:26:42.470Z,100.00
2022-09-11T11:29:50.656Z,100.00
2022-09-11T11:32:43.259Z,98.07
2022-09-11T11:35:17.456Z,100.00
2022-09-11T11:37:48.289Z,100.00
2022-09-11T11:40:39.531Z,98.87
2022-09-11T11:43:18.750Z,92.33
2022-09-11T11:46:02.215Z,93.21
2022-09-11T11:49:07.019Z,85.07
2022-09-11T11:52:10.835Z,83.76
2022-09-11T11:55:06.546Z,83.08
2022-09-11T11:57:42.243Z,79.31
2022-09-11T12:00:16.386Z,82.37
2022-09-11T12:03:00.749Z,83.57
2022-09-11T12:05:31.833Z,83.10
2022-09-11T12:07:59.035Z,87.22
2022-09-11T12:10:38.261Z,84.86
2022-09-11T12:13:37.094Z,81.00
2022-09-11T12:16:28.565Z,78.91
2022-09-11T12:19:06.232Z,79.13
2022-09-11T12:22:04.283Z,81.09
2022-09-11T12:24:54.967Z,81.56
2022-09-11T12:27:34.255Z,81.44
2022-09-11T12:30:16.254Z,83.52
2022-09-11T12:32:43.119Z,85.05
2022-09-11T12:35:51.911Z,86.14
2022-09-11T12:38:57.475Z,84.21
2022-09-11T12:41:35.800Z,83.61
2022-09-11T12:44:04.921Z,82.97
2022-09-11T12:46:31.604Z,82.43
2022-09-11T12:49:21.500Z,82.92
2022-09-11T12:51:58.482Z,82.41
2022-09-11T12:54:28.482Z,84.82
2022-09-11T12:57:12.793Z,82.42
2022-09-11T12:59:44.161Z,82.89
2022-09-11T13:02:51.241Z,80.88
2022-09-11T13:05:28.271Z,79.83
2022-09-11T13:08:00.649Z,77.99
2022-09-11T13:10:37.111Z,79.53
2022-09-11T13:13:27.214Z,78.93
2022-09-11T13:15:57.975Z,77.98
2022-09-11T13:18:33.599Z,75.94
2022-09-11T13:21:10.606Z,80.97
2022-09-11T13:23:38.032Z,78.93
2022-09-11T13:26:07.913Z,77.92
2022-09-11T13:28:46.276Z,82.30
2022-09-11T13:31:29.410Z,83.27
2022-09-11T13:33:56.413Z,82.85
2022-09-11T13:36:24.820Z,80.02
2022-09-11T13:38:59.848Z,83.02
2022-09-11T13:41:31.721Z,80.12
2022-09-11T13:44:02.971Z,79.42
2022-09-11T13:46:33.934Z,79.37
2022-09-11T13:49:10.436Z,81.02
2022-09-11T13:51:44.225Z,83.14
2022-09-11T13:54:31.699Z,83.55
2022-09-11T13:57:01.536Z,84.79
2022-09-11T13:59:44.784Z,85.76
2022-09-11T14:02:50.511Z,86.50
2022-09-11T14:05:26.150Z,84.16
2022-09-11T14:08:01.440Z,86.60
2022-09-11T14:10:33.220Z,85.72
2022-09-11T14:13:23.086Z,87.97
2022-09-11T14:15:55.962Z,85.72
2022-09-11T14:18:25.745Z,85.62
2022-09-11T14:20:53.436Z,86.80
2022-09-11T14:23:28.927Z,87.06
2022-09-11T14:26:19.422Z,87.32
2022-09-11T14:29:01.030Z,87.00
2022-09-11T14:31:41.391Z,86.41
2022-09-11T14:34:15.926Z,86.70
2022-09-11T14:36:45.908Z,84.29
2022-09-11T14:39:36.639Z,83.25
2022-09-11T14:42:07.146Z,86.50
2022-09-11T14:44:35.577Z,84.19
2022-09-11T14:47:02.449Z,85.67
2022-09-11T14:49:29.668Z,84.12
2022-09-11T14:52:00.966Z,83.45
2022-09-11T14:54:32.539Z,85.05
2022-09-11T14:57:00.360Z,83.54
2022-09-11T14:59:29.223Z,82.89
2022-09-11T15:01:58.588Z,79.85
2022-09-11T15:04:25.926Z,80.43
2022-09-11T15:06:55.484Z,81.86
2022-09-11T15:09:24.092Z,82.36
2022-09-11T15:11:52.361Z,81.61
2022-09-11T15:14:38.148Z,81.55
2022-09-11T15:17:10.887Z,79.16
2022-09-11T15:19:38.155Z,81.22
2022-09-11T15:22:06.540Z,80.90
2022-09-11T15:24:33.619Z,80.35
2022-09-11T15:27:01.187Z,79.14
2022-09-11T15:29:31.494Z,76.93
2022-09-11T15:32:01.239Z,72.56
2022-09-11T15:34:32.544Z,74.61
2022-09-11T15:37:00.229Z,72.82
2022-09-11T15:39:28.026Z,72.72
2022-09-11T15:41:56.214Z,74.15
2022-09-11T15:44:27.068Z,70.62
2022-09-11T15:46:55.845Z,70.50
2022-09-11T15:49:24.127Z,71.63
2022-09-11T15:51:53.824Z,71.75
2022-09-11T15:54:23.173Z,70.97
2022-09-11T15:56:51.761Z,71.95
2022-09-11T15:59:18.999Z,71.82
2022-09-11T16:01:46.240Z,72.58
2022-09-11T16:04:19.232Z,72.43
2022-09-11T16:06:48.457Z,72.26
2022-09-11T16:09:21.914Z,73.09
2022-09-11T16:11:50.500Z,65.61
2022-09-11T16:14:24.214Z,53.59
2022-09-11T16:16:51.843Z,54.55
2022-09-11T16:19:22.773Z,56.71
2022-09-11T16:21:50.261Z,61.25
2022-09-11T16:24:17.333Z,63.07
2022-09-11T16:26:44.759Z,65.91
2022-09-11T16:29:18.066Z,63.41
2022-09-11T16:31:44.970Z,67.46
2022-09-11T16:34:12.114Z,68.73
2022-09-11T16:36:39.031Z,66.83
2022-09-11T16:39:15.618Z,66.49
2022-09-11T16:41:43.165Z,68.93
2022-09-11T16:44:13.979Z,68.68
2022-09-11T16:46:42.215Z,70.23
2022-09-11T16:49:15.406Z,71.01
2022-09-11T16:51:43.520Z,70.23
2022-09-11T16:54:10.607Z,71.09
2022-09-11T16:56:40.595Z,71.59
2022-09-11T16:59:10.908Z,71.80
2022-09-11T17:01:38.448Z,72.60
2022-09-11T17:04:05.267Z,73.00
2022-09-11T17:06:32.408Z,72.99
2022-09-11T17:09:04.088Z,74.22
2022-09-11T17:11:32.826Z,73.86
2022-09-11T17:14:03.763Z,75.14
2022-09-11T17:16:34.097Z,75.99
2022-09-11T17:19:01.658Z,76.53
2022-09-11T17:21:35.627Z,76.17
2022-09-11T17:24:04.511Z,76.55
2022-09-11T17:26:31.940Z,77.40
2022-09-11T17:29:03.365Z,77.76
2022-09-11T17:31:31.086Z,78.22
2022-09-11T17:33:57.997Z,78.55
2022-09-11T17:36:25.252Z,79.16
2022-09-11T17:38:52.668Z,80.21
2022-09-11T17:41:21.015Z,81.49
2022-09-11T17:43:48.960Z,82.19
2022-09-11T17:46:20.788Z,82.45
2022-09-11T17:48:48.504Z,83.30
2022-09-11T17:51:22.066Z,86.87
2022-09-11T17:53:56.405Z,87.93
2022-09-11T17:56:27.868Z,88.58
2022-09-11T17:58:56.833Z,87.91
2022-09-11T18:01:25.206Z,89.05
2022-09-11T18:03:58.232Z,89.31
2022-09-11T18:06:34.565Z,90.56
2022-09-11T18:09:19.469Z,94.76
2022-09-11T18:11:50.388Z,97.55
2022-09-11T18:14:18.812Z,100.00
2022-09-11T18:16:47.789Z,99.25
2022-09-11T18:19:16.742Z,99.72
2022-09-11T18:21:49.296Z,100.00
2022-09-11T18:24:20.088Z,100.00
2022-09-11T18:26:50.749Z,100.00
2022-09-11T18:29:20.262Z,100.00
2022-09-11T18:31:51.666Z,100.00
2022-09-11T18:34:25.143Z,100.00
2022-09-11T18:36:52.549Z,100.00
2022-09-11T18:39:21.096Z,100.00
2022-09-11T18:41:49.379Z,100.00
2022-09-11T18:44:20.129Z,100.00
2022-09-11T18:46:48.063Z,100.00
2022-09-11T18:49:16.015Z,100.00
2022-09-11T18:51:43.215Z,100.00
2022-09-11T18:54:16.080Z,100.00
2022-09-11T18:56:43.884Z,100.00
2022-09-11T18:59:11.759Z,100.00
2022-09-11T19:01:39.928Z,100.00
2022-09-11T19:04:10.350Z,100.00
2022-09-11T19:06:40.297Z,100.00
2022-09-11T19:09:13.341Z,100.00
2022-09-11T19:11:40.698Z,100.00
2022-09-11T19:14:10.690Z,100.00
2022-09-11T19:16:39.438Z,100.00
2022-09-11T19:19:07.465Z,100.00
2022-09-11T19:21:35.216Z,100.00
2022-09-11T19:24:02.645Z,100.00
2022-09-11T19:26:39.768Z,100.00
2022-09-11T19:29:10.629Z,100.00
2022-09-11T19:31:39.213Z,100.00
2022-09-11T19:34:08.704Z,100.00
2022-09-11T19:36:36.040Z,100.00
2022-09-11T19:39:04.317Z,100.00
2022-09-11T19:41:35.358Z,100.00
2022-09-11T19:44:04.242Z,100.00
2022-09-11T19:46:33.615Z,100.00
2022-09-11T19:49:03.556Z,100.00
2022-09-11T19:51:35.243Z,100.00
2022-09-11T19:54:03.307Z,100.00
2022-09-11T19:56:32.842Z,100.00
2022-09-11T19:59:00.567Z,100.00
2022-09-11T20:01:32.193Z,100.00
2022-09-11T20:04:00.809Z,100.00
2022-09-11T20:06:31.764Z,100.00
2022-09-11T20:09:26.838Z,100.00
2022-09-11T20:11:46.690Z,100.00
2022-09-11T20:14:13.509Z,100.00
2022-09-11T20:16:41.599Z,100.00
2022-09-11T20:19:10.043Z,100.00
2022-09-11T20:21:37.168Z,100.00
2022-09-11T20:24:06.195Z,100.00
2022-09-11T20:26:33.517Z,100.00
2022-09-11T20:29:04.814Z,100.00
2022-09-11T20:31:37.065Z,100.00
2022-09-11T20:34:07.568Z,100.00
2022-09-11T20:36:34.472Z,100.00
2022-09-11T20:39:01.313Z,100.00
2022-09-11T20:41:30.110Z,100.00
2022-09-11T20:43:58.232Z,100.00
2022-09-11T20:46:25.468Z,100.00
2022-09-11T20:48:53.065Z,100.00
2022-09-11T20:51:22.415Z,100.00
2022-09-11T20:53:49.898Z,100.00
2022-09-11T20:56:20.479Z,100.00
2022-09-11T20:58:47.780Z,100.00
2022-09-11T21:01:21.188Z,100.00
2022-09-11T21:03:55.029Z,100.00
2022-09-11T21:06:26.159Z,100.00
2022-09-11T21:08:56.129Z,100.00
2022-09-11T21:11:28.493Z,100.00
2022-09-11T21:13:55.489Z,100.00
2022-09-11T21:16:22.529Z,100.00
2022-09-11T21:19:00.654Z,100.00
2022-09-11T21:21:28.962Z,100.00
2022-09-11T21:23:57.893Z,100.00
2022-09-11T21:26:26.199Z,100.00
2022-09-11T21:28:53.073Z,100.00
2022-09-11T21:31:20.032Z,100.00
2022-09-11T21:33:47.552Z,100.00
2022-09-11T21:36:14.772Z,100.00
2022-09-11T21:38:42.060Z,100.00
2022-09-11T21:41:12.287Z,100.00
2022-09-11T21:43:39.589Z,100.00
2022-09-11T21:46:08.713Z,100.00
2022-09-11T21:48:40.767Z,100.00
2022-09-11T21:51:18.586Z,100.00
2022-09-11T21:53:47.661Z,100.00
2022-09-11T21:56:25.054Z,100.00
2022-09-11T21:58:52.523Z,100.00
2022-09-11T22:01:21.203Z,100.00
2022-09-11T22:03:48.709Z,100.00
2022-09-11T22:06:15.948Z,100.00
2022-09-11T22:08:44.505Z,100.00
2022-09-11T22:11:11.763Z,100.00
2022-09-11T22:13:38.969Z,100.00
2022-09-11T22:16:11.091Z,100.00
2022-09-11T22:18:39.730Z,100.00
2022-09-11T22:21:08.238Z,100.00
2022-09-11T22:23:35.247Z,100.00
2022-09-11T22:26:18.465Z,100.00
2022-09-11T22:28:45.562Z,100.00
2022-09-11T22:31:19.444Z,100.00
2022-09-11T22:33:46.587Z,100.00
2022-09-11T22:36:23.759Z,100.00
2022-09-11T22:38:51.068Z,100.00
2022-09-11T22:41:18.847Z,100.00
2022-09-11T22:43:47.578Z,100.00
2022-09-11T22:46:16.268Z,100.00
2022-09-11T22:48:43.865Z,100.00
2022-09-11T22:51:11.188Z,100.00
2022-09-11T22:53:41.283Z,100.00
2022-09-11T22:56:09.394Z,100.00
2022-09-11T22:58:38.302Z,100.00
2022-09-11T23:01:09.393Z,100.00
2022-09-11T23:03:36.876Z,100.00
2022-09-11T23:06:23.099Z,100.00
2022-09-11T23:08:50.710Z,100.00
2022-09-11T23:11:19.637Z,100.00
2022-09-11T23:13:48.433Z,100.00
2022-09-11T23:16:19.978Z,100.00
2022-09-11T23:18:47.381Z,100.00
2022-09-11T23:21:15.022Z,100.00
2022-09-11T23:23:42.936Z,100.00
2022-09-11T23:26:14.056Z,100.00
2022-09-11T23:28:41.527Z,100.00
2022-09-11T23:31:22.019Z,100.00
2022-09-11T23:33:49.073Z,100.00
2022-09-11T23:36:16.444Z,100.00
2022-09-11T23:38:47.850Z,100.00
2022-09-11T23:41:15.509Z,100.00
2022-09-11T23:43:42.527Z,100.00
2022-09-11T23:46:10.295Z,100.00
2022-09-11T23:48:37.120Z,100.00
2022-09-11T23:51:04.097Z,100.00
2022-09-11T23:53:30.925Z,100.00
2022-09-11T23:55:59.270Z,100.00
2022-09-11T23:58:26.547Z,100.00
